WetterOnline ( https://www.wetteronline.de )

Wetter aktuell Bad Hersfeld

Aktuelles Wetter: Bad Hersfeld (273m)

6-stündlich | Neueste Meldungen
Ortszeit Temperatur Wetter
Do, 25.04. 14:00 22.1° C bedeckt
Do, 25.04. 8:00 6.5° C wolkenlos
Do, 25.04. 2:00 7.5° C wolkenlos
Mi, 24.04. 20:00 22.0° C bedeckt
Mi, 24.04. 14:00 23.1° C wolkenlos
Mi, 24.04. 8:00 12.3° C bedeckt
Mi, 24.04. 2:00 13.9° C bedeckt
Di, 23.04. 20:00 18.6° C bedeckt
Ortszeit Temperatur Wetter
Do, 25.04. 18:00 23.4° C bewölkt
Do, 25.04. 17:50 23.4° C bewölkt
Do, 25.04. 17:40 23.4° C bewölkt
Do, 25.04. 17:30 23.4° C wolkig
Do, 25.04. 17:20 23.4° C wolkig
Do, 25.04. 17:10 23.9° C bewölkt
Do, 25.04. 17:00 24.3° C bedeckt
Do, 25.04. 16:30 23.0° C bedeckt
Do, 25.04. 16:00 22.3° C bedeckt
Do, 25.04. 15:30 21.7° C bedeckt
Do, 25.04. 15:00 21.3° C bedeckt
Ortszeit Relative Feuchte Sichtweite
Do, 25.04. 14:00 32% 28 km
Do, 25.04. 8:00 79% 20 km
Do, 25.04. 2:00 85% 29 km
Mi, 24.04. 20:00 37% 26 km
Mi, 24.04. 14:00 37% 23 km
Mi, 24.04. 8:00 70% 15 km
Mi, 24.04. 2:00 62% 15 km
Di, 23.04. 20:00 45% 16 km
Ortszeit Relative Feuchte Sichtweite
Do, 25.04. 18:00 28% 30 km
Do, 25.04. 17:50 28% -
Do, 25.04. 17:40 25% -
Do, 25.04. 17:30 25% 25 km
Do, 25.04. 17:20 25% -
Do, 25.04. 17:10 26% -
Do, 25.04. 17:00 26% 30 km
Do, 25.04. 16:30 31% 27 km
Do, 25.04. 16:00 33% 28 km
Do, 25.04. 15:30 35% 28 km
Do, 25.04. 15:00 34% 27 km
Ortszeit Niederschlagsmenge Niederschlagsart
Do, 25.04. 14:00 0.0 l/m2 in 6 Std. -
Do, 25.04. 8:00 0.1 l/m2 in 12 Std. -
Do, 25.04. 2:00 0.1 l/m2 in 6 Std. Regen
Mi, 24.04. 20:00 0.0 l/m2 in 12 Std. -
Mi, 24.04. 14:00 0.0 l/m2 in 6 Std. -
Mi, 24.04. 8:00 0.0 l/m2 in 12 Std. -
Mi, 24.04. 2:00 0.0 l/m2 in 6 Std. -
Di, 23.04. 20:00 0.0 l/m2 in 12 Std. -
Ortszeit Niederschlagsmenge Niederschlagsart
Do, 25.04. 18:00 0.0 l/m2 in 1 Std. -
Do, 25.04. 17:50 keine Meldung -
Do, 25.04. 17:40 keine Meldung -
Do, 25.04. 17:30 0.0 l/m2 in 1 Std. -
Do, 25.04. 17:20 keine Meldung -
Do, 25.04. 17:10 keine Meldung -
Do, 25.04. 17:00 0.0 l/m2 in 1 Std. -
Do, 25.04. 16:30 0.0 l/m2 in 1 Std. -
Do, 25.04. 16:00 0.0 l/m2 in 1 Std. -
Do, 25.04. 15:30 0.0 l/m2 in 1 Std. -
Do, 25.04. 15:00 0.0 l/m2 in 1 Std. -
Ortszeit Stärke Spitze Richtung
km/h Bft. km/h Grad Sektor
Do, 25.04. 14:00 14 3 36 120° SO
Do, 25.04. 8:00 2 1 15 270° W
Do, 25.04. 2:00 2 1 80 270° W
Mi, 24.04. 20:00 6 1 28 100° O
Mi, 24.04. 14:00 11 2 20 230° SW
Mi, 24.04. 8:00 0 0 11 - -
Mi, 24.04. 2:00 6 1 22 70° O
Di, 23.04. 20:00 9 2 41 110° O
Ortszeit Stärke Spitze Richtung
km/h Bft. km/h Grad Sektor
Do, 25.04. 18:00 13 3 31 110° O
Do, 25.04. 17:50 13 3 - 110° O
Do, 25.04. 17:40 11 2 - 120° SO
Do, 25.04. 17:30 15 3 31 110° O
Do, 25.04. 17:20 15 3 - 110° O
Do, 25.04. 17:10 14 3 - 120° SO
Do, 25.04. 17:00 14 3 29 120° SO
Do, 25.04. 16:30 11 2 19 120° SO
Do, 25.04. 16:00 7 2 25 100° O
Do, 25.04. 15:30 11 2 25 130° SO
Do, 25.04. 15:00 14 3 32 120° SO
Ortszeit Untergrenze Bedeckung Gattung
total tief tief mittel hoch
Do, 25.04. 14:00 3600 m 8/8 8/8 - - -
Do, 25.04. 8:00 - 0/8 0/8 - - -
Do, 25.04. 2:00 - 0/8 0/8 - - -
Mi, 24.04. 20:00 6900 m 8/8 8/8 - - -
Mi, 24.04. 14:00 - 0/8 0/8 - - -
Mi, 24.04. 8:00 4200 m 8/8 8/8 - - -
Mi, 24.04. 2:00 3300 m 8/8 8/8 - - -
Di, 23.04. 20:00 3000 m 8/8 8/8 - - -
Ortszeit Bedeckungsgrad in Achtel und Wolkenuntergrenze
Do, 25.04. 18:00 6(3600m) 7(3900m) 8(9000m)
Do, 25.04. 17:50 6(3600m) 7(3900m) 8(9000m)
Do, 25.04. 17:40 7(3900m) 8(9000m) 8(9000m)
Do, 25.04. 17:30 1(3000m) 8(8700m) 8(9000m)
Do, 25.04. 17:20 1(3000m) 8(8700m) 8(9000m)
Do, 25.04. 17:10 4(3600m) 8(8700m) 8(9000m)
Do, 25.04. 17:00 7(3600m) 8(4500m) 8(10500m)
Do, 25.04. 16:30 7(3300m) 8(3900m)
Do, 25.04. 16:00 8(3300m) 8(3900m)
Do, 25.04. 15:30 8(3600m) 8(4200m)
Do, 25.04. 15:00 8(3600m)
Ortszeit Luftdruck NN (hPa) Tendenz (hPa in 3 Std.)
Do, 25.04. 14:00 1009 - 1,5
Do, 25.04. 8:00 1012 + 1,3
Do, 25.04. 2:00 1010 + 0,4
Mi, 24.04. 20:00 1001 - 0,6
Mi, 24.04. 14:00 1002 - 0,4
Mi, 24.04. 8:00 1003 + 1,4
Mi, 24.04. 2:00 1001 + 0,4
Di, 23.04. 20:00 999 - 0,1
Ortszeit Luftdruck NN (hPa) Tendenz (hPa in 3 Std.)
Do, 25.04. 18:00 1006 - 2,1
Do, 25.04. 17:50 1006 keine Meldung
Do, 25.04. 17:40 1006 keine Meldung
Do, 25.04. 17:30 1006 - 2,0
Do, 25.04. 17:20 1006 keine Meldung
Do, 25.04. 17:10 1006 keine Meldung
Do, 25.04. 17:00 1006 - 2,1
Do, 25.04. 16:30 1007 - 1,8
Do, 25.04. 16:00 1008 - 1,7
Do, 25.04. 15:30 1008 - 1,4
Do, 25.04. 15:00 1008 - 1,5
Ortszeit Schneehöhe (cm)
Do, 25.04. 14:00 0
Do, 25.04. 8:00 0
Do, 25.04. 2:00 0
Mi, 24.04. 20:00 0
Mi, 24.04. 14:00 0
Mi, 24.04. 8:00 0
Mi, 24.04. 2:00 0
Di, 23.04. 20:00 0
Ortszeit Schneehöhe (cm)
Do, 25.04. 18:00 0
Do, 25.04. 17:50 0
Do, 25.04. 17:40 0
Do, 25.04. 17:30 0
Do, 25.04. 17:20 0
Do, 25.04. 17:10 0
Do, 25.04. 17:00 0
Do, 25.04. 16:30 0
Do, 25.04. 16:00 0
Do, 25.04. 15:30 0
Do, 25.04. 15:00 0
Link zu dieser Seite / Seite empfehlen

Das Wetter in ...